Main page
METAR-TAF:

METAR-TAF

Airports :

Calvi – Sainte-Catherine Airport

Calvi, France

latitude: 42-32N, longitude: 008-48E, elevation: 64 m

Current weather observation

The report was made 29 minutes ago, at 14:00 UTC
Wind 18 kt from the North
Temperature 20°C
Humidity 35%
Pressure 1017 hPa
Visibility 10 km or more
no clouds below 1500 m and no cumulonimbus

METAR: LFKC 041400Z AUTO 01018KT CAVOK 20/04 Q1017 TEMPO 02015G25KT

Time: 16:29 (14:29 UTC)

Forecast

The report was made 6 hours and 29 minutes ago, at 08:00 UTC
Forecast valid from 04 at 09 UTC to 05 at 09 UTC
Wind 12 kt from the North
Visibility 10 km or more
no clouds below 1500 m and no cumulonimbus
Temporary
from 04 at 11 UTC to 04 at 15 UTC
Wind 15 kt from the North/Northeast with gusts up to 25 kt

TAF: LFKC 040800Z 0409/0509 36012KT CAVOK TX19/0411Z TN07/0503Z TEMPO 0411/0415 02015G25KT

Weather observations and forecasts of more than 4000 airports (METAR and TAF reports).

The available stations are represented by yellow and red dots on the map.

Hover mouse over dot to see the name of the station.

Then click to see weather observations and forecasts.

To change the map : click on the green buttons with a black cross to zoom in, on the green button with a dash to zoom out, or on the green arrows for adjacent maps.


METAR-TAF: